sensor_id;sensor_type;location;lat;lon;timestamp;pressure;altitude;pressure_sealevel;temperature;humidity
77482;BME280;66582;43.004;-75.010;2023-03-08T00:02:12;100588.41;;;-1.03;45.26
77482;BME280;66582;43.004;-75.010;2023-03-08T00:04:37;100589.14;;;-0.01;43.74
77482;BME280;66582;43.004;-75.010;2023-03-08T00:07:03;100589.01;;;-0.62;43.63
77482;BME280;66582;43.004;-75.010;2023-03-08T00:09:27;100594.48;;;-0.75;43.84
77482;BME280;66582;43.004;-75.010;2023-03-08T00:11:53;100596.20;;;-0.80;44.25
77482;BME280;66582;43.004;-75.010;2023-03-08T00:14:18;100603.38;;;-0.99;43.68
77482;BME280;66582;43.004;-75.010;2023-03-08T00:16:43;100607.45;;;-1.06;43.51
77482;BME280;66582;43.004;-75.010;2023-03-08T00:19:08;100618.53;;;-1.24;44.43
77482;BME280;66582;43.004;-75.010;2023-03-08T00:21:33;100622.49;;;-1.78;46.37
77482;BME280;66582;43.004;-75.010;2023-03-08T00:23:59;100635.80;;;-2.94;47.21
77482;BME280;66582;43.004;-75.010;2023-03-08T00:26:23;100639.80;;;-2.35;46.48
77482;BME280;66582;43.004;-75.010;2023-03-08T00:28:49;100642.54;;;-2.57;46.83
77482;BME280;66582;43.004;-75.010;2023-03-08T00:31:14;100653.03;;;-2.92;45.90
77482;BME280;66582;43.004;-75.010;2023-03-08T00:33:40;100651.18;;;-1.97;45.70
77482;BME280;66582;43.004;-75.010;2023-03-08T00:36:06;100647.62;;;-1.48;45.97
77482;BME280;66582;43.004;-75.010;2023-03-08T00:38:31;100651.29;;;-0.37;43.73
77482;BME280;66582;43.004;-75.010;2023-03-08T00:40:55;100649.10;;;-0.11;42.33
77482;BME280;66582;43.004;-75.010;2023-03-08T00:43:20;100655.33;;;-1.30;44.29
77482;BME280;66582;43.004;-75.010;2023-03-08T00:45:45;100666.23;;;-2.85;46.96
77482;BME280;66582;43.004;-75.010;2023-03-08T00:48:10;100679.67;;;-2.11;47.52
77482;BME280;66582;43.004;-75.010;2023-03-08T00:50:36;100675.40;;;-2.54;47.14
77482;BME280;66582;43.004;-75.010;2023-03-08T00:53:00;100671.66;;;-1.10;44.65
77482;BME280;66582;43.004;-75.010;2023-03-08T00:55:26;100679.91;;;-2.39;46.94
77482;BME280;66582;43.004;-75.010;2023-03-08T00:57:51;100685.31;;;-1.34;44.82
77482;BME280;66582;43.004;-75.010;2023-03-08T01:00:17;100696.03;;;-2.47;46.99
77482;BME280;66582;43.004;-75.010;2023-03-08T01:02:42;100698.14;;;-1.93;46.56
77482;BME280;66582;43.004;-75.010;2023-03-08T01:05:08;100698.45;;;-2.64;47.86
77482;BME280;66582;43.004;-75.010;2023-03-08T01:07:32;100692.51;;;-2.64;47.20
77482;BME280;66582;43.004;-75.010;2023-03-08T01:09:57;100707.97;;;-3.09;49.61
77482;BME280;66582;43.004;-75.010;2023-03-08T01:12:23;100710.36;;;-2.98;48.38
77482;BME280;66582;43.004;-75.010;2023-03-08T01:14:49;100711.97;;;-3.19;48.96
77482;BME280;66582;43.004;-75.010;2023-03-08T01:17:13;100714.12;;;-3.04;48.15
77482;BME280;66582;43.004;-75.010;2023-03-08T01:19:37;100713.03;;;-2.59;47.54
77482;BME280;66582;43.004;-75.010;2023-03-08T01:22:03;100715.32;;;-3.19;48.52
77482;BME280;66582;43.004;-75.010;2023-03-08T01:24:28;100734.98;;;-3.18;49.17
77482;BME280;66582;43.004;-75.010;2023-03-08T01:26:53;100732.19;;;-4.01;51.04
77482;BME280;66582;43.004;-75.010;2023-03-08T01:29:19;100728.51;;;-2.94;49.28
77482;BME280;66582;43.004;-75.010;2023-03-08T01:31:43;100737.42;;;-4.10;51.48
77482;BME280;66582;43.004;-75.010;2023-03-08T01:34:09;100746.13;;;-4.21;52.92
77482;BME280;66582;43.004;-75.010;2023-03-08T01:36:34;100739.50;;;-3.81;51.52
77482;BME280;66582;43.004;-75.010;2023-03-08T01:39:00;100757.24;;;-4.36;52.10
77482;BME280;66582;43.004;-75.010;2023-03-08T01:41:28;100753.22;;;-4.04;52.04
77482;BME280;66582;43.004;-75.010;2023-03-08T01:43:50;100761.63;;;-4.31;53.61
77482;BME280;66582;43.004;-75.010;2023-03-08T01:46:21;100760.50;;;-3.49;50.71
77482;BME280;66582;43.004;-75.010;2023-03-08T01:48:43;100758.98;;;-3.38;50.35
77482;BME280;66582;43.004;-75.010;2023-03-08T01:51:06;100773.11;;;-3.92;51.11
77482;BME280;66582;43.004;-75.010;2023-03-08T01:53:31;100767.00;;;-3.56;51.56
77482;BME280;66582;43.004;-75.010;2023-03-08T01:55:56;100766.65;;;-3.72;52.35
77482;BME280;66582;43.004;-75.010;2023-03-08T01:58:21;100765.05;;;-2.74;50.07
77482;BME280;66582;43.004;-75.010;2023-03-08T02:00:46;100771.79;;;-2.56;49.03
77482;BME280;66582;43.004;-75.010;2023-03-08T02:03:11;100774.25;;;-2.80;50.30
77482;BME280;66582;43.004;-75.010;2023-03-08T02:05:38;100783.02;;;-2.92;49.89
77482;BME280;66582;43.004;-75.010;2023-03-08T02:08:01;100785.40;;;-2.80;49.99
77482;BME280;66582;43.004;-75.010;2023-03-08T02:10:27;100785.31;;;-3.06;51.67
77482;BME280;66582;43.004;-75.010;2023-03-08T02:12:52;100798.63;;;-3.93;51.99
77482;BME280;66582;43.004;-75.010;2023-03-08T02:15:19;100800.54;;;-3.75;52.82
77482;BME280;66582;43.004;-75.010;2023-03-08T02:17:42;100806.58;;;-3.51;52.40
77482;BME280;66582;43.004;-75.010;2023-03-08T02:20:12;100802.44;;;-3.02;51.64
77482;BME280;66582;43.004;-75.010;2023-03-08T02:22:38;100802.44;;;-3.25;51.09
77482;BME280;66582;43.004;-75.010;2023-03-08T02:24:58;100812.30;;;-4.23;53.81
77482;BME280;66582;43.004;-75.010;2023-03-08T02:27:25;100812.69;;;-3.45;52.33
77482;BME280;66582;43.004;-75.010;2023-03-08T02:29:49;100814.61;;;-2.59;50.32
77482;BME280;66582;43.004;-75.010;2023-03-08T02:32:13;100822.36;;;-3.31;51.26
77482;BME280;66582;43.004;-75.010;2023-03-08T02:34:39;100815.74;;;-3.49;53.35
77482;BME280;66582;43.004;-75.010;2023-03-08T02:37:04;100812.88;;;-3.43;52.37
77482;BME280;66582;43.004;-75.010;2023-03-08T02:39:29;100820.30;;;-2.92;50.20
77482;BME280;66582;43.004;-75.010;2023-03-08T02:41:55;100814.97;;;-2.31;50.62
77482;BME280;66582;43.004;-75.010;2023-03-08T02:44:19;100809.60;;;-2.65;50.17
77482;BME280;66582;43.004;-75.010;2023-03-08T02:46:44;100819.74;;;-3.00;49.93
77482;BME280;66582;43.004;-75.010;2023-03-08T02:49:09;100826.38;;;-3.46;52.55
77482;BME280;66582;43.004;-75.010;2023-03-08T02:51:35;100821.67;;;-3.33;52.04
77482;BME280;66582;43.004;-75.010;2023-03-08T02:54:01;100825.20;;;-2.85;51.95
77482;BME280;66582;43.004;-75.010;2023-03-08T02:56:26;100822.92;;;-2.49;50.03
77482;BME280;66582;43.004;-75.010;2023-03-08T02:58:50;100820.86;;;-3.32;52.35
77482;BME280;66582;43.004;-75.010;2023-03-08T03:01:15;100822.94;;;-3.13;51.71
77482;BME280;66582;43.004;-75.010;2023-03-08T03:03:41;100828.21;;;-1.91;50.62
77482;BME280;66582;43.004;-75.010;2023-03-08T03:06:12;100834.83;;;-3.18;52.24
77482;BME280;66582;43.004;-75.010;2023-03-08T03:08:31;100833.00;;;-3.02;52.85
77482;BME280;66582;43.004;-75.010;2023-03-08T03:10:56;100827.65;;;-2.74;51.47
77482;BME280;66582;43.004;-75.010;2023-03-08T03:13:22;100834.91;;;-2.83;51.35
77482;BME280;66582;43.004;-75.010;2023-03-08T03:15:47;100835.77;;;-2.84;52.00
77482;BME280;66582;43.004;-75.010;2023-03-08T03:18:12;100833.00;;;-2.04;49.71
77482;BME280;66582;43.004;-75.010;2023-03-08T03:20:37;100834.97;;;-2.58;49.60
77482;BME280;66582;43.004;-75.010;2023-03-08T03:23:03;100831.83;;;-3.49;53.31
77482;BME280;66582;43.004;-75.010;2023-03-08T03:25:27;100837.28;;;-3.14;53.53
77482;BME280;66582;43.004;-75.010;2023-03-08T03:27:53;100844.56;;;-3.81;53.09
77482;BME280;66582;43.004;-75.010;2023-03-08T03:30:17;100833.55;;;-3.51;53.55
77482;BME280;66582;43.004;-75.010;2023-03-08T03:32:43;100834.93;;;-2.32;51.11
77482;BME280;66582;43.004;-75.010;2023-03-08T03:35:09;100840.53;;;-3.35;52.98
77482;BME280;66582;43.004;-75.010;2023-03-08T03:37:33;100835.57;;;-2.47;51.20
77482;BME280;66582;43.004;-75.010;2023-03-08T03:39:58;100837.22;;;-3.72;52.45
77482;BME280;66582;43.004;-75.010;2023-03-08T03:42:23;100841.42;;;-3.01;51.89
77482;BME280;66582;43.004;-75.010;2023-03-08T03:44:49;100838.26;;;-3.86;52.91
77482;BME280;66582;43.004;-75.010;2023-03-08T03:47:14;100833.02;;;-3.03;52.67
77482;BME280;66582;43.004;-75.010;2023-03-08T03:49:40;100842.50;;;-4.00;55.15
77482;BME280;66582;43.004;-75.010;2023-03-08T03:52:05;100829.21;;;-3.35;53.43
77482;BME280;66582;43.004;-75.010;2023-03-08T03:54:30;100836.79;;;-3.39;52.75
77482;BME280;66582;43.004;-75.010;2023-03-08T03:56:54;100832.89;;;-2.82;52.99
77482;BME280;66582;43.004;-75.010;2023-03-08T03:59:20;100833.16;;;-2.31;51.20
77482;BME280;66582;43.004;-75.010;2023-03-08T04:01:45;100828.29;;;-2.70;51.33
77482;BME280;66582;43.004;-75.010;2023-03-08T04:04:10;100834.05;;;-2.28;50.51
77482;BME280;66582;43.004;-75.010;2023-03-08T04:06:35;100836.72;;;-3.55;53.19
77482;BME280;66582;43.004;-75.010;2023-03-08T04:09:03;100832.62;;;-3.03;51.58
77482;BME280;66582;43.004;-75.010;2023-03-08T04:11:27;100836.24;;;-2.73;51.72
77482;BME280;66582;43.004;-75.010;2023-03-08T04:13:51;100835.85;;;-2.44;50.14
77482;BME280;66582;43.004;-75.010;2023-03-08T04:16:18;100837.69;;;-2.32;49.62
77482;BME280;66582;43.004;-75.010;2023-03-08T04:18:41;100834.39;;;-3.03;51.98
77482;BME280;66582;43.004;-75.010;2023-03-08T04:21:07;100843.38;;;-3.07;52.07
77482;BME280;66582;43.004;-75.010;2023-03-08T04:23:31;100834.16;;;-3.12;51.62
77482;BME280;66582;43.004;-75.010;2023-03-08T04:25:57;100843.94;;;-3.05;51.23
77482;BME280;66582;43.004;-75.010;2023-03-08T04:28:22;100840.72;;;-2.67;49.79
77482;BME280;66582;43.004;-75.010;2023-03-08T04:30:47;100839.06;;;-2.19;48.31
77482;BME280;66582;43.004;-75.010;2023-03-08T04:33:13;100846.67;;;-2.48;49.30
77482;BME280;66582;43.004;-75.010;2023-03-08T04:35:38;100846.73;;;-2.46;48.96
77482;BME280;66582;43.004;-75.010;2023-03-08T04:38:03;100851.07;;;-1.99;48.05
77482;BME280;66582;43.004;-75.010;2023-03-08T04:40:28;100847.82;;;-2.22;48.77
77482;BME280;66582;43.004;-75.010;2023-03-08T04:42:53;100843.60;;;-1.92;48.53
77482;BME280;66582;43.004;-75.010;2023-03-08T04:45:18;100851.59;;;-2.11;48.20
77482;BME280;66582;43.004;-75.010;2023-03-08T04:47:43;100849.17;;;-1.44;47.52
77482;BME280;66582;43.004;-75.010;2023-03-08T04:50:09;100853.02;;;-2.36;48.38
77482;BME280;66582;43.004;-75.010;2023-03-08T04:52:34;100847.65;;;-1.59;47.83
77482;BME280;66582;43.004;-75.010;2023-03-08T04:54:59;100857.89;;;-2.40;48.59
77482;BME280;66582;43.004;-75.010;2023-03-08T04:57:24;100856.56;;;-2.19;48.18
77482;BME280;66582;43.004;-75.010;2023-03-08T04:59:50;100857.21;;;-2.06;48.82
77482;BME280;66582;43.004;-75.010;2023-03-08T05:02:14;100859.41;;;-1.45;47.48
77482;BME280;66582;43.004;-75.010;2023-03-08T05:04:39;100858.45;;;-2.32;48.71
77482;BME280;66582;43.004;-75.010;2023-03-08T05:07:05;100865.74;;;-2.07;48.25
77482;BME280;66582;43.004;-75.010;2023-03-08T05:09:30;100866.22;;;-2.48;48.91
77482;BME280;66582;43.004;-75.010;2023-03-08T05:11:55;100865.02;;;-2.66;49.69
77482;BME280;66582;43.004;-75.010;2023-03-08T05:14:20;100870.81;;;-2.59;49.61
77482;BME280;66582;43.004;-75.010;2023-03-08T05:16:46;100868.10;;;-1.66;47.66
77482;BME280;66582;43.004;-75.010;2023-03-08T05:19:10;100863.60;;;-1.54;46.85
77482;BME280;66582;43.004;-75.010;2023-03-08T05:21:36;100871.01;;;-1.64;47.19
77482;BME280;66582;43.004;-75.010;2023-03-08T05:24:01;100867.16;;;-1.98;47.82
77482;BME280;66582;43.004;-75.010;2023-03-08T05:26:26;100876.27;;;-3.20;49.65
77482;BME280;66582;43.004;-75.010;2023-03-08T05:28:51;100889.52;;;-3.54;51.71
77482;BME280;66582;43.004;-75.010;2023-03-08T05:31:18;100884.09;;;-2.65;50.53
77482;BME280;66582;43.004;-75.010;2023-03-08T05:43:37;100896.15;;;-2.34;49.26
77482;BME280;66582;43.004;-75.010;2023-03-08T05:45:55;100903.91;;;-2.42;49.48
77482;BME280;66582;43.004;-75.010;2023-03-08T05:48:13;100905.72;;;-4.20;53.42
77482;BME280;66582;43.004;-75.010;2023-03-08T05:50:38;100897.77;;;-2.73;51.54
77482;BME280;66582;43.004;-75.010;2023-03-08T05:53:04;100907.08;;;-3.55;52.73
77482;BME280;66582;43.004;-75.010;2023-03-08T05:55:29;100907.76;;;-2.76;51.07
77482;BME280;66582;43.004;-75.010;2023-03-08T05:57:54;100904.87;;;-2.45;50.05
77482;BME280;66582;43.004;-75.010;2023-03-08T06:00:20;100905.70;;;-1.55;48.36
77482;BME280;66582;43.004;-75.010;2023-03-08T06:02:45;100907.38;;;-1.19;46.39
77482;BME280;66582;43.004;-75.010;2023-03-08T06:05:10;100910.95;;;-1.10;47.05
77482;BME280;66582;43.004;-75.010;2023-03-08T06:07:35;100918.02;;;-1.06;46.35
77482;BME280;66582;43.004;-75.010;2023-03-08T06:10:00;100921.78;;;-1.80;47.41
77482;BME280;66582;43.004;-75.010;2023-03-08T06:12:25;100917.86;;;-1.49;46.80
77482;BME280;66582;43.004;-75.010;2023-03-08T06:14:50;100919.92;;;-1.96;45.99
77482;BME280;66582;43.004;-75.010;2023-03-08T06:17:16;100928.22;;;-3.43;49.98
77482;BME280;66582;43.004;-75.010;2023-03-08T06:19:41;100925.95;;;-2.65;49.44
77482;BME280;66582;43.004;-75.010;2023-03-08T06:22:06;100927.24;;;-2.41;48.60
77482;BME280;66582;43.004;-75.010;2023-03-08T06:24:31;100928.48;;;-2.05;48.01
77482;BME280;66582;43.004;-75.010;2023-03-08T06:26:56;100922.41;;;-2.86;48.19
77482;BME280;66582;43.004;-75.010;2023-03-08T06:29:22;100921.93;;;-3.09;49.23
77482;BME280;66582;43.004;-75.010;2023-03-08T06:31:47;100913.46;;;-1.53;47.08
77482;BME280;66582;43.004;-75.010;2023-03-08T06:34:12;100920.46;;;-3.04;48.76
77482;BME280;66582;43.004;-75.010;2023-03-08T06:36:37;100922.18;;;-3.20;50.83
77482;BME280;66582;43.004;-75.010;2023-03-08T06:39:03;100927.38;;;-2.42;49.25
77482;BME280;66582;43.004;-75.010;2023-03-08T06:41:27;100930.45;;;-2.52;48.21
77482;BME280;66582;43.004;-75.010;2023-03-08T06:43:56;100926.50;;;-2.63;48.80
77482;BME280;66582;43.004;-75.010;2023-03-08T06:46:18;100927.98;;;-2.14;48.65
77482;BME280;66582;43.004;-75.010;2023-03-08T06:48:44;100935.77;;;-3.58;50.40
77482;BME280;66582;43.004;-75.010;2023-03-08T06:51:09;100939.28;;;-3.33;50.01
77482;BME280;66582;43.004;-75.010;2023-03-08T06:53:34;100939.96;;;-3.11;51.11
77482;BME280;66582;43.004;-75.010;2023-03-08T06:55:59;100937.46;;;-3.07;50.33
77482;BME280;66582;43.004;-75.010;2023-03-08T06:58:24;100940.08;;;-2.07;48.28
77482;BME280;66582;43.004;-75.010;2023-03-08T07:00:49;100937.07;;;-2.99;49.95
77482;BME280;66582;43.004;-75.010;2023-03-08T07:03:15;100948.89;;;-3.34;51.15
77482;BME280;66582;43.004;-75.010;2023-03-08T07:05:40;100939.78;;;-3.32;51.53
77482;BME280;66582;43.004;-75.010;2023-03-08T07:08:06;100935.39;;;-1.84;48.05
77482;BME280;66582;43.004;-75.010;2023-03-08T07:10:30;100943.41;;;-2.86;49.73
77482;BME280;66582;43.004;-75.010;2023-03-08T07:12:55;100946.80;;;-3.60;51.20
77482;BME280;66582;43.004;-75.010;2023-03-08T07:15:22;100943.64;;;-2.00;48.36
77482;BME280;66582;43.004;-75.010;2023-03-08T07:17:46;100943.30;;;-2.10;48.23
77482;BME280;66582;43.004;-75.010;2023-03-08T07:20:13;100947.42;;;-2.39;50.74
77482;BME280;66582;43.004;-75.010;2023-03-08T07:22:36;100950.20;;;-2.72;49.99
77482;BME280;66582;43.004;-75.010;2023-03-08T07:25:01;100954.38;;;-4.06;52.98
77482;BME280;66582;43.004;-75.010;2023-03-08T07:27:26;100955.70;;;-2.59;51.53
77482;BME280;66582;43.004;-75.010;2023-03-08T07:29:51;100960.92;;;-3.28;51.77
77482;BME280;66582;43.004;-75.010;2023-03-08T07:32:17;100958.09;;;-2.83;50.49
77482;BME280;66582;43.004;-75.010;2023-03-08T07:34:42;100960.55;;;-2.86;49.81
77482;BME280;66582;43.004;-75.010;2023-03-08T07:37:11;100966.80;;;-2.68;49.68
77482;BME280;66582;43.004;-75.010;2023-03-08T07:39:32;100981.29;;;-2.95;50.62
77482;BME280;66582;43.004;-75.010;2023-03-08T07:41:57;100985.57;;;-3.42;50.40
77482;BME280;66582;43.004;-75.010;2023-03-08T07:44:22;100989.19;;;-3.85;52.77
77482;BME280;66582;43.004;-75.010;2023-03-08T07:46:48;100981.78;;;-3.08;51.70
77482;BME280;66582;43.004;-75.010;2023-03-08T07:49:13;100980.69;;;-2.87;51.20
77482;BME280;66582;43.004;-75.010;2023-03-08T07:51:38;100983.23;;;-3.21;49.94
77482;BME280;66582;43.004;-75.010;2023-03-08T07:54:03;100977.89;;;-1.26;47.55
77482;BME280;66582;43.004;-75.010;2023-03-08T07:56:29;100983.58;;;-3.04;50.11
77482;BME280;66582;43.004;-75.010;2023-03-08T07:58:56;100981.21;;;-3.06;51.54
77482;BME280;66582;43.004;-75.010;2023-03-08T08:01:19;100986.32;;;-3.93;53.49
77482;BME280;66582;43.004;-75.010;2023-03-08T08:03:44;100993.76;;;-4.28;54.43
77482;BME280;66582;43.004;-75.010;2023-03-08T08:06:09;100986.57;;;-3.62;54.05
77482;BME280;66582;43.004;-75.010;2023-03-08T08:08:35;100988.16;;;-3.22;51.97
77482;BME280;66582;43.004;-75.010;2023-03-08T08:10:59;100982.86;;;-2.97;52.06
77482;BME280;66582;43.004;-75.010;2023-03-08T08:13:26;100979.66;;;-2.95;51.44
77482;BME280;66582;43.004;-75.010;2023-03-08T08:15:56;100983.27;;;-1.80;48.92
77482;BME280;66582;43.004;-75.010;2023-03-08T08:18:15;100985.14;;;-2.21;48.29
77482;BME280;66582;43.004;-75.010;2023-03-08T08:20:40;100993.28;;;-2.60;50.39
77482;BME280;66582;43.004;-75.010;2023-03-08T08:23:06;100999.11;;;-3.68;52.51
77482;BME280;66582;43.004;-75.010;2023-03-08T08:25:31;100998.71;;;-3.58;52.70
77482;BME280;66582;43.004;-75.010;2023-03-08T08:27:56;101004.38;;;-3.25;51.69
77482;BME280;66582;43.004;-75.010;2023-03-08T08:30:22;101012.17;;;-3.25;51.26
77482;BME280;66582;43.004;-75.010;2023-03-08T08:32:46;101010.96;;;-3.13;51.75
77482;BME280;66582;43.004;-75.010;2023-03-08T08:35:11;101019.49;;;-3.53;52.40
77482;BME280;66582;43.004;-75.010;2023-03-08T08:37:36;101012.90;;;-2.97;51.52
77482;BME280;66582;43.004;-75.010;2023-03-08T08:40:03;101018.84;;;-2.68;50.75
77482;BME280;66582;43.004;-75.010;2023-03-08T08:42:27;101014.56;;;-2.90;50.76
77482;BME280;66582;43.004;-75.010;2023-03-08T08:44:52;101012.59;;;-1.75;48.04
77482;BME280;66582;43.004;-75.010;2023-03-08T08:47:17;101016.67;;;-2.17;47.77
77482;BME280;66582;43.004;-75.010;2023-03-08T08:49:43;101017.42;;;-1.58;46.65
77482;BME280;66582;43.004;-75.010;2023-03-08T08:52:08;101030.25;;;-4.31;51.89
77482;BME280;66582;43.004;-75.010;2023-03-08T08:54:33;101028.37;;;-3.24;50.16
77482;BME280;66582;43.004;-75.010;2023-03-08T08:56:58;101029.17;;;-3.01;50.59
77482;BME280;66582;43.004;-75.010;2023-03-08T08:59:23;101028.94;;;-3.65;51.69
77482;BME280;66582;43.004;-75.010;2023-03-08T09:01:49;101024.31;;;-2.66;50.69
77482;BME280;66582;43.004;-75.010;2023-03-08T09:04:14;101030.21;;;-2.88;49.87
77482;BME280;66582;43.004;-75.010;2023-03-08T09:06:39;101038.18;;;-3.57;51.54
77482;BME280;66582;43.004;-75.010;2023-03-08T09:09:05;101039.33;;;-2.76;50.79
77482;BME280;66582;43.004;-75.010;2023-03-08T09:11:29;101034.31;;;-2.58;49.80
77482;BME280;66582;43.004;-75.010;2023-03-08T09:13:54;101032.33;;;-1.18;46.74
77482;BME280;66582;43.004;-75.010;2023-03-08T09:16:21;101037.18;;;-1.34;46.59
77482;BME280;66582;43.004;-75.010;2023-03-08T09:18:45;101043.50;;;-3.38;49.51
77482;BME280;66582;43.004;-75.010;2023-03-08T09:21:10;101052.85;;;-2.56;49.30
77482;BME280;66582;43.004;-75.010;2023-03-08T09:23:35;101050.26;;;-1.94;49.01
77482;BME280;66582;43.004;-75.010;2023-03-08T09:26:00;101048.07;;;-1.58;47.63
77482;BME280;66582;43.004;-75.010;2023-03-08T09:28:25;101063.27;;;-3.00;49.49
77482;BME280;66582;43.004;-75.010;2023-03-08T09:30:50;101062.57;;;-2.93;50.06
77482;BME280;66582;43.004;-75.010;2023-03-08T09:33:16;101074.37;;;-3.87;51.00
77482;BME280;66582;43.004;-75.010;2023-03-08T09:35:42;101073.78;;;-3.00;50.62
77482;BME280;66582;43.004;-75.010;2023-03-08T09:38:06;101076.65;;;-2.74;49.57
77482;BME280;66582;43.004;-75.010;2023-03-08T09:40:38;101078.80;;;-3.18;51.01
77482;BME280;66582;43.004;-75.010;2023-03-08T09:43:03;101086.11;;;-3.72;52.19
77482;BME280;66582;43.004;-75.010;2023-03-08T09:45:25;101081.55;;;-3.24;51.31
77482;BME280;66582;43.004;-75.010;2023-03-08T09:47:51;101089.17;;;-3.23;52.53
77482;BME280;66582;43.004;-75.010;2023-03-08T09:50:23;101086.34;;;-3.08;51.57
77482;BME280;66582;43.004;-75.010;2023-03-08T09:52:41;101085.39;;;-3.05;51.06
77482;BME280;66582;43.004;-75.010;2023-03-08T09:55:09;101097.28;;;-3.78;50.76
77482;BME280;66582;43.004;-75.010;2023-03-08T09:57:32;101097.67;;;-3.06;51.01
77482;BME280;66582;43.004;-75.010;2023-03-08T09:59:54;101108.12;;;-2.05;49.48
77482;BME280;66582;43.004;-75.010;2023-03-08T10:02:26;101109.30;;;-3.04;50.55
77482;BME280;66582;43.004;-75.010;2023-03-08T10:04:49;101114.05;;;-1.95;49.11
77482;BME280;66582;43.004;-75.010;2023-03-08T10:07:18;101113.55;;;-2.76;49.98
77482;BME280;66582;43.004;-75.010;2023-03-08T10:09:36;101115.77;;;-3.32;51.85
77482;BME280;66582;43.004;-75.010;2023-03-08T10:12:11;101111.09;;;-3.20;51.40
77482;BME280;66582;43.004;-75.010;2023-03-08T10:14:28;101108.07;;;-3.11;49.75
77482;BME280;66582;43.004;-75.010;2023-03-08T10:16:52;101107.34;;;-2.82;50.66
77482;BME280;66582;43.004;-75.010;2023-03-08T10:19:19;101104.35;;;-2.23;49.14
77482;BME280;66582;43.004;-75.010;2023-03-08T10:21:41;101108.96;;;-2.40;48.34
77482;BME280;66582;43.004;-75.010;2023-03-08T10:24:13;101116.97;;;-3.31;50.71
77482;BME280;66582;43.004;-75.010;2023-03-08T10:26:30;101112.20;;;-2.76;49.25
77482;BME280;66582;43.004;-75.010;2023-03-08T10:28:55;101105.82;;;-3.02;50.31
77482;BME280;66582;43.004;-75.010;2023-03-08T10:31:23;101116.96;;;-2.64;49.28
77482;BME280;66582;43.004;-75.010;2023-03-08T10:33:45;101116.30;;;-3.05;51.09
77482;BME280;66582;43.004;-75.010;2023-03-08T10:36:17;101121.20;;;-2.63;50.52
77482;BME280;66582;43.004;-75.010;2023-03-08T10:38:36;101127.51;;;-3.05;51.40
77482;BME280;66582;43.004;-75.010;2023-03-08T10:41:03;101118.69;;;-3.11;50.20
77482;BME280;66582;43.004;-75.010;2023-03-08T10:43:28;101126.70;;;-3.16;51.56
77482;BME280;66582;43.004;-75.010;2023-03-08T10:45:57;101127.28;;;-3.14;51.11
77482;BME280;66582;43.004;-75.010;2023-03-08T10:48:20;101128.25;;;-3.81;51.65
77482;BME280;66582;43.004;-75.010;2023-03-08T10:50:42;101132.89;;;-3.15;52.55
77482;BME280;66582;43.004;-75.010;2023-03-08T10:53:09;101129.41;;;-3.07;50.63
77482;BME280;66582;43.004;-75.010;2023-03-08T10:55:41;101129.10;;;-3.71;50.25
77482;BME280;66582;43.004;-75.010;2023-03-08T10:57:59;101125.96;;;-3.07;50.81
77482;BME280;66582;43.004;-75.010;2023-03-08T11:00:31;101126.27;;;-3.06;49.24
77482;BME280;66582;43.004;-75.010;2023-03-08T11:02:47;101124.24;;;-2.89;50.47
77482;BME280;66582;43.004;-75.010;2023-03-08T11:05:20;101124.34;;;-2.77;50.36
77482;BME280;66582;43.004;-75.010;2023-03-08T11:07:39;101116.65;;;-1.02;47.33
77482;BME280;66582;43.004;-75.010;2023-03-08T11:10:14;101109.42;;;-0.98;46.04
77482;BME280;66582;43.004;-75.010;2023-03-08T11:12:28;101118.99;;;-3.01;49.24
77482;BME280;66582;43.004;-75.010;2023-03-08T11:14:54;101127.47;;;-3.28;50.27
77482;BME280;66582;43.004;-75.010;2023-03-08T11:17:23;101132.43;;;-3.67;52.58
77482;BME280;66582;43.004;-75.010;2023-03-08T11:19:51;101140.67;;;-3.54;53.24
77482;BME280;66582;43.004;-75.010;2023-03-08T11:22:22;101142.12;;;-3.49;53.17
77482;BME280;66582;43.004;-75.010;2023-03-08T11:24:46;101139.14;;;-3.90;53.64
77482;BME280;66582;43.004;-75.010;2023-03-08T11:29:33;101148.43;;;-4.18;55.29
77482;BME280;66582;43.004;-75.010;2023-03-08T11:31:55;101154.24;;;-4.04;54.95
77482;BME280;66582;43.004;-75.010;2023-03-08T11:34:24;101159.12;;;-4.40;55.44
77482;BME280;66582;43.004;-75.010;2023-03-08T11:36:44;101149.89;;;-3.08;52.52
77482;BME280;66582;43.004;-75.010;2023-03-08T11:39:13;101160.45;;;-3.31;52.47
77482;BME280;66582;43.004;-75.010;2023-03-08T11:41:37;101160.55;;;-2.45;50.52
77482;BME280;66582;43.004;-75.010;2023-03-08T11:46:23;101167.28;;;-2.93;51.84
77482;BME280;66582;43.004;-75.010;2023-03-08T11:48:56;101169.47;;;-2.93;51.33
77482;BME280;66582;43.004;-75.010;2023-03-08T11:51:18;101171.86;;;-3.41;51.89
77482;BME280;66582;43.004;-75.010;2023-03-08T11:53:48;101171.19;;;-2.32;50.23
77482;BME280;66582;43.004;-75.010;2023-03-08T11:56:12;101183.53;;;-3.63;52.40
77482;BME280;66582;43.004;-75.010;2023-03-08T11:58:30;101179.18;;;-3.15;52.24
77482;BME280;66582;43.004;-75.010;2023-03-08T12:00:55;101184.38;;;-3.43;52.00
77482;BME280;66582;43.004;-75.010;2023-03-08T12:03:19;101168.68;;;-3.17;52.48
77482;BME280;66582;43.004;-75.010;2023-03-08T12:05:47;101169.21;;;-4.06;53.93
77482;BME280;66582;43.004;-75.010;2023-03-08T12:08:14;101177.45;;;-3.37;52.11
77482;BME280;66582;43.004;-75.010;2023-03-08T12:10:39;101179.24;;;-3.37;52.36
77482;BME280;66582;43.004;-75.010;2023-03-08T12:13:03;101183.56;;;-3.44;52.51
77482;BME280;66582;43.004;-75.010;2023-03-08T12:15:28;101186.83;;;-3.27;52.47
77482;BME280;66582;43.004;-75.010;2023-03-08T12:17:53;101189.48;;;-3.32;51.63
77482;BME280;66582;43.004;-75.010;2023-03-08T12:20:15;101187.10;;;-2.85;50.03
77482;BME280;66582;43.004;-75.010;2023-03-08T12:22:45;101204.65;;;-3.83;52.44
77482;BME280;66582;43.004;-75.010;2023-03-08T12:25:11;101199.98;;;-4.04;53.58
77482;BME280;66582;43.004;-75.010;2023-03-08T12:27:34;101197.33;;;-3.46;52.07
77482;BME280;66582;43.004;-75.010;2023-03-08T12:30:01;101195.90;;;-3.13;52.12
77482;BME280;66582;43.004;-75.010;2023-03-08T12:32:21;101199.33;;;-3.75;53.10
77482;BME280;66582;43.004;-75.010;2023-03-08T12:34:46;101197.88;;;-2.85;51.17